sensor_id;sensor_type;location;lat;lon;timestamp;pressure;altitude;pressure_sealevel;temperature
19666;BMP180;9980;51.020;7.772;2023-04-24T00:01:00;96126.00;;;14.20
19666;BMP180;9980;51.020;7.772;2023-04-24T00:03:27;96126.00;;;14.30
19666;BMP180;9980;51.020;7.772;2023-04-24T00:05:54;96121.00;;;14.30
19666;BMP180;9980;51.020;7.772;2023-04-24T00:08:21;96130.00;;;14.30
19666;BMP180;9980;51.020;7.772;2023-04-24T00:10:48;96120.00;;;14.30
19666;BMP180;9980;51.020;7.772;2023-04-24T00:13:15;96118.00;;;14.30
19666;BMP180;9980;51.020;7.772;2023-04-24T00:15:41;96110.00;;;14.30
19666;BMP180;9980;51.020;7.772;2023-04-24T00:18:07;96108.00;;;14.30
19666;BMP180;9980;51.020;7.772;2023-04-24T00:20:34;96117.00;;;14.30
19666;BMP180;9980;51.020;7.772;2023-04-24T00:23:01;96100.00;;;14.30
19666;BMP180;9980;51.020;7.772;2023-04-24T00:25:27;96104.00;;;14.30
19666;BMP180;9980;51.020;7.772;2023-04-24T00:27:54;96118.00;;;14.30
19666;BMP180;9980;51.020;7.772;2023-04-24T00:30:20;96110.00;;;14.30
19666;BMP180;9980;51.020;7.772;2023-04-24T00:32:47;96121.00;;;14.30
19666;BMP180;9980;51.020;7.772;2023-04-24T00:35:13;96121.00;;;14.30
19666;BMP180;9980;51.020;7.772;2023-04-24T00:37:42;96109.00;;;14.30
19666;BMP180;9980;51.020;7.772;2023-04-24T00:40:08;96110.00;;;14.30
19666;BMP180;9980;51.020;7.772;2023-04-24T00:42:35;96106.00;;;14.30
19666;BMP180;9980;51.020;7.772;2023-04-24T00:45:04;96105.00;;;14.30
19666;BMP180;9980;51.020;7.772;2023-04-24T00:47:33;96104.00;;;14.30
19666;BMP180;9980;51.020;7.772;2023-04-24T00:50:03;96106.00;;;14.40
19666;BMP180;9980;51.020;7.772;2023-04-24T00:52:29;96099.00;;;14.40
19666;BMP180;9980;51.020;7.772;2023-04-24T00:54:57;96103.00;;;14.30
19666;BMP180;9980;51.020;7.772;2023-04-24T00:57:23;96099.00;;;14.30
19666;BMP180;9980;51.020;7.772;2023-04-24T00:59:51;96096.00;;;14.40
19666;BMP180;9980;51.020;7.772;2023-04-24T01:02:18;96085.00;;;14.40
19666;BMP180;9980;51.020;7.772;2023-04-24T01:04:45;96088.00;;;14.40
19666;BMP180;9980;51.020;7.772;2023-04-24T01:07:12;96098.00;;;14.40
19666;BMP180;9980;51.020;7.772;2023-04-24T01:09:40;96102.00;;;14.30
19666;BMP180;9980;51.020;7.772;2023-04-24T01:12:10;96106.00;;;14.30
19666;BMP180;9980;51.020;7.772;2023-04-24T01:14:37;96091.00;;;14.40
19666;BMP180;9980;51.020;7.772;2023-04-24T01:17:04;96093.00;;;14.40
19666;BMP180;9980;51.020;7.772;2023-04-24T01:19:30;96082.00;;;14.40
19666;BMP180;9980;51.020;7.772;2023-04-24T01:21:58;96086.00;;;14.40
19666;BMP180;9980;51.020;7.772;2023-04-24T01:24:29;96086.00;;;14.30
19666;BMP180;9980;51.020;7.772;2023-04-24T01:26:56;96075.00;;;14.40
19666;BMP180;9980;51.020;7.772;2023-04-24T01:29:22;96068.00;;;14.40
19666;BMP180;9980;51.020;7.772;2023-04-24T01:31:50;96087.00;;;14.40
19666;BMP180;9980;51.020;7.772;2023-04-24T01:34:16;96084.00;;;14.40
19666;BMP180;9980;51.020;7.772;2023-04-24T01:36:45;96092.00;;;14.40
19666;BMP180;9980;51.020;7.772;2023-04-24T01:39:12;96087.00;;;14.30
19666;BMP180;9980;51.020;7.772;2023-04-24T01:41:39;96090.00;;;14.30
19666;BMP180;9980;51.020;7.772;2023-04-24T01:44:05;96082.00;;;14.30
19666;BMP180;9980;51.020;7.772;2023-04-24T01:46:32;96086.00;;;14.30
19666;BMP180;9980;51.020;7.772;2023-04-24T01:49:01;96084.00;;;14.30
19666;BMP180;9980;51.020;7.772;2023-04-24T01:51:28;96070.00;;;14.30
19666;BMP180;9980;51.020;7.772;2023-04-24T01:53:56;96072.00;;;14.30
19666;BMP180;9980;51.020;7.772;2023-04-24T01:56:22;96084.00;;;14.30
19666;BMP180;9980;51.020;7.772;2023-04-24T01:58:50;96072.00;;;14.30
19666;BMP180;9980;51.020;7.772;2023-04-24T02:01:20;96073.00;;;14.30
19666;BMP180;9980;51.020;7.772;2023-04-24T02:03:47;96072.00;;;14.30
19666;BMP180;9980;51.020;7.772;2023-04-24T02:06:14;96087.00;;;14.30
19666;BMP180;9980;51.020;7.772;2023-04-24T02:08:40;96083.00;;;14.30
19666;BMP180;9980;51.020;7.772;2023-04-24T02:11:09;96076.00;;;14.30
19666;BMP180;9980;51.020;7.772;2023-04-24T02:13:36;96074.00;;;14.30
19666;BMP180;9980;51.020;7.772;2023-04-24T02:16:02;96074.00;;;14.30
19666;BMP180;9980;51.020;7.772;2023-04-24T02:18:29;96078.00;;;14.30
19666;BMP180;9980;51.020;7.772;2023-04-24T02:20:56;96086.00;;;14.30
19666;BMP180;9980;51.020;7.772;2023-04-24T02:23:22;96078.00;;;14.30
19666;BMP180;9980;51.020;7.772;2023-04-24T02:25:49;96080.00;;;14.30
19666;BMP180;9980;51.020;7.772;2023-04-24T02:28:16;96078.00;;;14.30
19666;BMP180;9980;51.020;7.772;2023-04-24T02:30:43;96080.00;;;14.30
19666;BMP180;9980;51.020;7.772;2023-04-24T02:33:09;96092.00;;;14.20
19666;BMP180;9980;51.020;7.772;2023-04-24T02:35:35;96092.00;;;14.20
19666;BMP180;9980;51.020;7.772;2023-04-24T02:38:02;96092.00;;;14.20
19666;BMP180;9980;51.020;7.772;2023-04-24T02:40:29;96102.00;;;14.20
19666;BMP180;9980;51.020;7.772;2023-04-24T02:42:55;96106.00;;;14.10
19666;BMP180;9980;51.020;7.772;2023-04-24T02:45:23;96104.00;;;14.10
19666;BMP180;9980;51.020;7.772;2023-04-24T02:47:49;96109.00;;;14.00
19666;BMP180;9980;51.020;7.772;2023-04-24T02:50:16;96109.00;;;14.00
19666;BMP180;9980;51.020;7.772;2023-04-24T02:52:42;96116.00;;;14.00
19666;BMP180;9980;51.020;7.772;2023-04-24T02:55:09;96109.00;;;13.90
19666;BMP180;9980;51.020;7.772;2023-04-24T02:57:35;96133.00;;;13.90
19666;BMP180;9980;51.020;7.772;2023-04-24T03:00:02;96123.00;;;13.90
19666;BMP180;9980;51.020;7.772;2023-04-24T03:02:29;96128.00;;;13.90
19666;BMP180;9980;51.020;7.772;2023-04-24T03:04:55;96119.00;;;13.80
19666;BMP180;9980;51.020;7.772;2023-04-24T03:07:23;96132.00;;;13.80
19666;BMP180;9980;51.020;7.772;2023-04-24T03:09:49;96125.00;;;13.80
19666;BMP180;9980;51.020;7.772;2023-04-24T03:12:16;96130.00;;;13.80
19666;BMP180;9980;51.020;7.772;2023-04-24T03:14:44;96132.00;;;13.80
19666;BMP180;9980;51.020;7.772;2023-04-24T03:17:10;96124.00;;;13.80
19666;BMP180;9980;51.020;7.772;2023-04-24T03:19:36;96144.00;;;13.80
19666;BMP180;9980;51.020;7.772;2023-04-24T03:22:08;96140.00;;;13.70
19666;BMP180;9980;51.020;7.772;2023-04-24T03:24:36;96155.00;;;13.70
19666;BMP180;9980;51.020;7.772;2023-04-24T03:27:02;96143.00;;;13.70
19666;BMP180;9980;51.020;7.772;2023-04-24T03:29:45;96153.00;;;13.60
19666;BMP180;9980;51.020;7.772;2023-04-24T03:32:12;96162.00;;;13.60
19666;BMP180;9980;51.020;7.772;2023-04-24T03:34:39;96157.00;;;13.60
19666;BMP180;9980;51.020;7.772;2023-04-24T03:37:07;96145.00;;;13.60
19666;BMP180;9980;51.020;7.772;2023-04-24T03:39:36;96147.00;;;13.60
19666;BMP180;9980;51.020;7.772;2023-04-24T03:42:03;96145.00;;;13.50
19666;BMP180;9980;51.020;7.772;2023-04-24T03:44:41;96143.00;;;13.50
19666;BMP180;9980;51.020;7.772;2023-04-24T03:47:07;96159.00;;;13.50
19666;BMP180;9980;51.020;7.772;2023-04-24T03:49:35;96175.00;;;13.50
19666;BMP180;9980;51.020;7.772;2023-04-24T03:52:02;96169.00;;;13.40
19666;BMP180;9980;51.020;7.772;2023-04-24T03:54:28;96168.00;;;13.40
19666;BMP180;9980;51.020;7.772;2023-04-24T03:56:55;96156.00;;;13.40
19666;BMP180;9980;51.020;7.772;2023-04-24T03:59:23;96174.00;;;13.30
19666;BMP180;9980;51.020;7.772;2023-04-24T04:02:03;96185.00;;;13.30
19666;BMP180;9980;51.020;7.772;2023-04-24T04:04:29;96184.00;;;13.30
19666;BMP180;9980;51.020;7.772;2023-04-24T04:06:56;96182.00;;;13.30
19666;BMP180;9980;51.020;7.772;2023-04-24T04:09:24;96189.00;;;13.20
19666;BMP180;9980;51.020;7.772;2023-04-24T04:11:50;96172.00;;;13.20
19666;BMP180;9980;51.020;7.772;2023-04-24T04:14:16;96170.00;;;13.20
19666;BMP180;9980;51.020;7.772;2023-04-24T04:16:46;96177.00;;;13.20
19666;BMP180;9980;51.020;7.772;2023-04-24T04:19:13;96165.00;;;13.10
19666;BMP180;9980;51.020;7.772;2023-04-24T04:21:39;96184.00;;;13.10
19666;BMP180;9980;51.020;7.772;2023-04-24T04:24:17;96175.00;;;13.10
19666;BMP180;9980;51.020;7.772;2023-04-24T04:26:45;96183.00;;;13.00
19666;BMP180;9980;51.020;7.772;2023-04-24T04:29:19;96170.00;;;13.00
19666;BMP180;9980;51.020;7.772;2023-04-24T04:31:49;96193.00;;;13.00
19666;BMP180;9980;51.020;7.772;2023-04-24T04:34:15;96192.00;;;13.00
19666;BMP180;9980;51.020;7.772;2023-04-24T04:36:42;96187.00;;;13.00
19666;BMP180;9980;51.020;7.772;2023-04-24T04:39:25;96201.00;;;12.90
19666;BMP180;9980;51.020;7.772;2023-04-24T04:42:07;96207.00;;;12.90
19666;BMP180;9980;51.020;7.772;2023-04-24T04:44:39;96193.00;;;12.90
19666;BMP180;9980;51.020;7.772;2023-04-24T04:47:07;96203.00;;;12.90
19666;BMP180;9980;51.020;7.772;2023-04-24T04:49:38;96196.00;;;12.90
19666;BMP180;9980;51.020;7.772;2023-04-24T04:52:09;96204.00;;;12.90
19666;BMP180;9980;51.020;7.772;2023-04-24T04:54:36;96202.00;;;12.90
19666;BMP180;9980;51.020;7.772;2023-04-24T04:57:02;96205.00;;;12.80
19666;BMP180;9980;51.020;7.772;2023-04-24T04:59:30;96188.00;;;12.80
19666;BMP180;9980;51.020;7.772;2023-04-24T05:02:02;96195.00;;;12.80
19666;BMP180;9980;51.020;7.772;2023-04-24T05:04:30;96200.00;;;12.80
19666;BMP180;9980;51.020;7.772;2023-04-24T05:06:57;96195.00;;;12.80
19666;BMP180;9980;51.020;7.772;2023-04-24T05:09:24;96189.00;;;12.70
19666;BMP180;9980;51.020;7.772;2023-04-24T05:11:57;96195.00;;;12.70
19666;BMP180;9980;51.020;7.772;2023-04-24T05:14:24;96200.00;;;12.70
19666;BMP180;9980;51.020;7.772;2023-04-24T05:16:51;96195.00;;;12.70
19666;BMP180;9980;51.020;7.772;2023-04-24T05:19:20;96195.00;;;12.70
19666;BMP180;9980;51.020;7.772;2023-04-24T05:21:46;96208.00;;;12.70
19666;BMP180;9980;51.020;7.772;2023-04-24T05:24:12;96202.00;;;12.70
19666;BMP180;9980;51.020;7.772;2023-04-24T05:26:53;96209.00;;;12.70
19666;BMP180;9980;51.020;7.772;2023-04-24T05:29:25;96219.00;;;12.70
19666;BMP180;9980;51.020;7.772;2023-04-24T05:31:53;96205.00;;;12.70
19666;BMP180;9980;51.020;7.772;2023-04-24T05:34:20;96220.00;;;12.70
19666;BMP180;9980;51.020;7.772;2023-04-24T05:36:50;96219.00;;;12.60
19666;BMP180;9980;51.020;7.772;2023-04-24T05:39:17;96219.00;;;12.70
19666;BMP180;9980;51.020;7.772;2023-04-24T05:41:44;96218.00;;;12.60
19666;BMP180;9980;51.020;7.772;2023-04-24T05:44:10;96217.00;;;12.60
19666;BMP180;9980;51.020;7.772;2023-04-24T05:46:36;96240.00;;;12.70
19666;BMP180;9980;51.020;7.772;2023-04-24T05:49:03;96223.00;;;12.70
19666;BMP180;9980;51.020;7.772;2023-04-24T05:51:34;96251.00;;;12.70
19666;BMP180;9980;51.020;7.772;2023-04-24T05:54:00;96234.00;;;12.70
19666;BMP180;9980;51.020;7.772;2023-04-24T05:56:27;96229.00;;;12.80
19666;BMP180;9980;51.020;7.772;2023-04-24T05:58:54;96235.00;;;12.80
19666;BMP180;9980;51.020;7.772;2023-04-24T06:01:20;96234.00;;;12.80
19666;BMP180;9980;51.020;7.772;2023-04-24T06:03:53;96238.00;;;12.80
19666;BMP180;9980;51.020;7.772;2023-04-24T06:06:20;96233.00;;;12.80
19666;BMP180;9980;51.020;7.772;2023-04-24T06:08:47;96220.00;;;12.80
19666;BMP180;9980;51.020;7.772;2023-04-24T06:11:13;96236.00;;;12.80
19666;BMP180;9980;51.020;7.772;2023-04-24T06:13:40;96241.00;;;12.80
19666;BMP180;9980;51.020;7.772;2023-04-24T06:16:32;96233.00;;;12.80
19666;BMP180;9980;51.020;7.772;2023-04-24T06:19:05;96216.00;;;12.80
19666;BMP180;9980;51.020;7.772;2023-04-24T06:21:31;96220.00;;;12.80
19666;BMP180;9980;51.020;7.772;2023-04-24T06:23:57;96219.00;;;12.80
19666;BMP180;9980;51.020;7.772;2023-04-24T06:26:25;96220.00;;;12.80
19666;BMP180;9980;51.020;7.772;2023-04-24T06:28:52;96216.00;;;12.80
19666;BMP180;9980;51.020;7.772;2023-04-24T06:31:20;96219.00;;;12.80
19666;BMP180;9980;51.020;7.772;2023-04-24T06:33:48;96227.00;;;12.90
19666;BMP180;9980;51.020;7.772;2023-04-24T06:36:14;96228.00;;;12.90
19666;BMP180;9980;51.020;7.772;2023-04-24T06:38:40;96219.00;;;12.90
19666;BMP180;9980;51.020;7.772;2023-04-24T06:41:06;96214.00;;;13.00
19666;BMP180;9980;51.020;7.772;2023-04-24T06:43:33;96214.00;;;13.00
19666;BMP180;9980;51.020;7.772;2023-04-24T06:46:00;96223.00;;;13.00
19666;BMP180;9980;51.020;7.772;2023-04-24T06:48:26;96204.00;;;13.00
19666;BMP180;9980;51.020;7.772;2023-04-24T06:50:52;96227.00;;;13.10
19666;BMP180;9980;51.020;7.772;2023-04-24T06:53:18;96211.00;;;13.10
19666;BMP180;9980;51.020;7.772;2023-04-24T06:55:45;96210.00;;;13.10
19666;BMP180;9980;51.020;7.772;2023-04-24T06:58:12;96220.00;;;13.20
19666;BMP180;9980;51.020;7.772;2023-04-24T07:00:38;96199.00;;;13.20
19666;BMP180;9980;51.020;7.772;2023-04-24T07:03:04;96213.00;;;13.30
19666;BMP180;9980;51.020;7.772;2023-04-24T07:05:33;96216.00;;;13.30
19666;BMP180;9980;51.020;7.772;2023-04-24T07:08:01;96216.00;;;13.30
19666;BMP180;9980;51.020;7.772;2023-04-24T07:10:28;96218.00;;;13.30
19666;BMP180;9980;51.020;7.772;2023-04-24T07:12:55;96209.00;;;13.30
19666;BMP180;9980;51.020;7.772;2023-04-24T07:15:24;96219.00;;;13.30
19666;BMP180;9980;51.020;7.772;2023-04-24T07:17:50;96213.00;;;13.30
19666;BMP180;9980;51.020;7.772;2023-04-24T07:20:16;96227.00;;;13.30
19666;BMP180;9980;51.020;7.772;2023-04-24T07:22:43;96230.00;;;13.30
19666;BMP180;9980;51.020;7.772;2023-04-24T07:25:09;96218.00;;;13.30
19666;BMP180;9980;51.020;7.772;2023-04-24T07:27:36;96236.00;;;13.40
19666;BMP180;9980;51.020;7.772;2023-04-24T07:30:06;96235.00;;;13.40
19666;BMP180;9980;51.020;7.772;2023-04-24T07:32:33;96234.00;;;13.50
19666;BMP180;9980;51.020;7.772;2023-04-24T07:34:59;96247.00;;;13.50
19666;BMP180;9980;51.020;7.772;2023-04-24T07:37:25;96236.00;;;13.50
19666;BMP180;9980;51.020;7.772;2023-04-24T07:39:52;96246.00;;;13.50
19666;BMP180;9980;51.020;7.772;2023-04-24T07:42:18;96248.00;;;13.60
19666;BMP180;9980;51.020;7.772;2023-04-24T07:44:44;96248.00;;;13.60
19666;BMP180;9980;51.020;7.772;2023-04-24T07:47:12;96248.00;;;13.60
19666;BMP180;9980;51.020;7.772;2023-04-24T07:49:41;96260.00;;;13.50
19666;BMP180;9980;51.020;7.772;2023-04-24T07:52:08;96261.00;;;13.50
19666;BMP180;9980;51.020;7.772;2023-04-24T07:54:35;96261.00;;;13.50
19666;BMP180;9980;51.020;7.772;2023-04-24T07:57:03;96267.00;;;13.50
19666;BMP180;9980;51.020;7.772;2023-04-24T07:59:29;96262.00;;;13.50
19666;BMP180;9980;51.020;7.772;2023-04-24T08:01:55;96253.00;;;13.50
19666;BMP180;9980;51.020;7.772;2023-04-24T08:04:22;96265.00;;;13.50
19666;BMP180;9980;51.020;7.772;2023-04-24T08:06:48;96274.00;;;13.50
19666;BMP180;9980;51.020;7.772;2023-04-24T08:09:15;96272.00;;;13.40
19666;BMP180;9980;51.020;7.772;2023-04-24T08:11:41;96268.00;;;13.40
19666;BMP180;9980;51.020;7.772;2023-04-24T08:14:07;96271.00;;;13.40
19666;BMP180;9980;51.020;7.772;2023-04-24T08:16:34;96274.00;;;13.40
19666;BMP180;9980;51.020;7.772;2023-04-24T08:19:01;96282.00;;;13.40
19666;BMP180;9980;51.020;7.772;2023-04-24T08:21:27;96299.00;;;13.30
19666;BMP180;9980;51.020;7.772;2023-04-24T08:23:53;96287.00;;;13.30
19666;BMP180;9980;51.020;7.772;2023-04-24T08:26:20;96287.00;;;13.20
19666;BMP180;9980;51.020;7.772;2023-04-24T08:28:46;96295.00;;;13.20
19666;BMP180;9980;51.020;7.772;2023-04-24T08:31:12;96299.00;;;13.20
19666;BMP180;9980;51.020;7.772;2023-04-24T08:33:38;96302.00;;;13.20
19666;BMP180;9980;51.020;7.772;2023-04-24T08:36:07;96288.00;;;13.10
19666;BMP180;9980;51.020;7.772;2023-04-24T08:38:34;96293.00;;;13.10
19666;BMP180;9980;51.020;7.772;2023-04-24T08:41:01;96327.00;;;13.10
19666;BMP180;9980;51.020;7.772;2023-04-24T08:43:27;96318.00;;;13.00
19666;BMP180;9980;51.020;7.772;2023-04-24T08:45:58;96321.00;;;13.00
19666;BMP180;9980;51.020;7.772;2023-04-24T08:48:26;96346.00;;;13.00
19666;BMP180;9980;51.020;7.772;2023-04-24T08:50:59;96335.00;;;12.90
19666;BMP180;9980;51.020;7.772;2023-04-24T08:53:26;96336.00;;;12.90
19666;BMP180;9980;51.020;7.772;2023-04-24T08:55:55;96353.00;;;12.80
19666;BMP180;9980;51.020;7.772;2023-04-24T08:58:27;96367.00;;;12.70
19666;BMP180;9980;51.020;7.772;2023-04-24T09:00:58;96359.00;;;12.60
19666;BMP180;9980;51.020;7.772;2023-04-24T09:03:27;96355.00;;;12.50
19666;BMP180;9980;51.020;7.772;2023-04-24T09:05:55;96370.00;;;12.50
19666;BMP180;9980;51.020;7.772;2023-04-24T09:08:25;96366.00;;;12.40
19666;BMP180;9980;51.020;7.772;2023-04-24T09:10:52;96361.00;;;12.30
19666;BMP180;9980;51.020;7.772;2023-04-24T09:13:22;96366.00;;;12.30
19666;BMP180;9980;51.020;7.772;2023-04-24T09:15:48;96360.00;;;12.30
19666;BMP180;9980;51.020;7.772;2023-04-24T09:18:15;96385.00;;;12.20
19666;BMP180;9980;51.020;7.772;2023-04-24T09:21:02;96388.00;;;12.20
19666;BMP180;9980;51.020;7.772;2023-04-24T09:23:32;96390.00;;;12.20
19666;BMP180;9980;51.020;7.772;2023-04-24T09:26:01;96382.00;;;12.20
19666;BMP180;9980;51.020;7.772;2023-04-24T09:31:15;96399.00;;;12.10
19666;BMP180;9980;51.020;7.772;2023-04-24T09:33:59;96390.00;;;12.00
19666;BMP180;9980;51.020;7.772;2023-04-24T09:39:01;96408.00;;;12.00
19666;BMP180;9980;51.020;7.772;2023-04-24T09:41:28;96384.00;;;11.90
19666;BMP180;9980;51.020;7.772;2023-04-24T09:44:11;96403.00;;;11.90
19666;BMP180;9980;51.020;7.772;2023-04-24T09:46:38;96392.00;;;11.90
19666;BMP180;9980;51.020;7.772;2023-04-24T09:49:22;96412.00;;;11.90
19666;BMP180;9980;51.020;7.772;2023-04-24T09:51:50;96407.00;;;11.90
19666;BMP180;9980;51.020;7.772;2023-04-24T09:54:21;96415.00;;;11.90
19666;BMP180;9980;51.020;7.772;2023-04-24T09:56:51;96414.00;;;11.90
19666;BMP180;9980;51.020;7.772;2023-04-24T09:59:19;96426.00;;;11.80
19666;BMP180;9980;51.020;7.772;2023-04-24T10:01:46;96419.00;;;11.80
19666;BMP180;9980;51.020;7.772;2023-04-24T10:04:27;96419.00;;;11.80
19666;BMP180;9980;51.020;7.772;2023-04-24T10:06:56;96438.00;;;11.80
19666;BMP180;9980;51.020;7.772;2023-04-24T10:09:26;96438.00;;;11.80
19666;BMP180;9980;51.020;7.772;2023-04-24T10:11:54;96430.00;;;11.80
19666;BMP180;9980;51.020;7.772;2023-04-24T10:14:23;96440.00;;;11.80
19666;BMP180;9980;51.020;7.772;2023-04-24T10:16:54;96437.00;;;11.80
19666;BMP180;9980;51.020;7.772;2023-04-24T10:19:20;96444.00;;;11.80
19666;BMP180;9980;51.020;7.772;2023-04-24T10:21:47;96451.00;;;11.80
19666;BMP180;9980;51.020;7.772;2023-04-24T10:24:16;96472.00;;;11.80
19666;BMP180;9980;51.020;7.772;2023-04-24T10:26:45;96468.00;;;11.80
19666;BMP180;9980;51.020;7.772;2023-04-24T10:29:14;96456.00;;;11.80
19666;BMP180;9980;51.020;7.772;2023-04-24T10:31:41;96456.00;;;11.80
19666;BMP180;9980;51.020;7.772;2023-04-24T10:34:09;96469.00;;;11.80
19666;BMP180;9980;51.020;7.772;2023-04-24T10:36:44;96472.00;;;11.80
19666;BMP180;9980;51.020;7.772;2023-04-24T10:39:14;96468.00;;;11.90
19666;BMP180;9980;51.020;7.772;2023-04-24T10:41:42;96487.00;;;11.90
19666;BMP180;9980;51.020;7.772;2023-04-24T10:44:11;96499.00;;;11.90
19666;BMP180;9980;51.020;7.772;2023-04-24T10:46:39;96507.00;;;11.90
19666;BMP180;9980;51.020;7.772;2023-04-24T10:49:07;96518.00;;;11.90
19666;BMP180;9980;51.020;7.772;2023-04-24T10:51:54;96506.00;;;11.90
19666;BMP180;9980;51.020;7.772;2023-04-24T10:54:45;96521.00;;;12.00
19666;BMP180;9980;51.020;7.772;2023-04-24T10:59:50;96511.00;;;12.10
19666;BMP180;9980;51.020;7.772;2023-04-24T11:02:17;96538.00;;;12.10
19666;BMP180;9980;51.020;7.772;2023-04-24T11:04:44;96533.00;;;12.20
19666;BMP180;9980;51.020;7.772;2023-04-24T11:07:12;96535.00;;;12.20
19666;BMP180;9980;51.020;7.772;2023-04-24T11:09:38;96532.00;;;12.30
19666;BMP180;9980;51.020;7.772;2023-04-24T11:12:11;96531.00;;;12.30
19666;BMP180;9980;51.020;7.772;2023-04-24T11:15:00;96545.00;;;12.30
19666;BMP180;9980;51.020;7.772;2023-04-24T11:17:38;96539.00;;;12.40
19666;BMP180;9980;51.020;7.772;2023-04-24T11:20:16;96540.00;;;12.40
19666;BMP180;9980;51.020;7.772;2023-04-24T11:22:55;96545.00;;;12.50
19666;BMP180;9980;51.020;7.772;2023-04-24T11:25:22;96543.00;;;12.60
19666;BMP180;9980;51.020;7.772;2023-04-24T11:27:49;96553.00;;;12.60
19666;BMP180;9980;51.020;7.772;2023-04-24T11:30:20;96566.00;;;12.70
19666;BMP180;9980;51.020;7.772;2023-04-24T11:32:51;96552.00;;;12.80
19666;BMP180;9980;51.020;7.772;2023-04-24T11:35:22;96553.00;;;12.90
19666;BMP180;9980;51.020;7.772;2023-04-24T11:37:54;96559.00;;;13.00
19666;BMP180;9980;51.020;7.772;2023-04-24T11:40:23;96564.00;;;13.10
19666;BMP180;9980;51.020;7.772;2023-04-24T11:42:52;96583.00;;;13.20
19666;BMP180;9980;51.020;7.772;2023-04-24T11:45:25;96564.00;;;13.20
19666;BMP180;9980;51.020;7.772;2023-04-24T11:47:51;96560.00;;;13.30
19666;BMP180;9980;51.020;7.772;2023-04-24T11:50:23;96576.00;;;13.30
19666;BMP180;9980;51.020;7.772;2023-04-24T11:52:51;96595.00;;;13.30
19666;BMP180;9980;51.020;7.772;2023-04-24T11:57:56;96604.00;;;13.30
19666;BMP180;9980;51.020;7.772;2023-04-24T12:00:32;96601.00;;;13.30
19666;BMP180;9980;51.020;7.772;2023-04-24T12:03:11;96597.00;;;13.30
19666;BMP180;9980;51.020;7.772;2023-04-24T12:05:39;96596.00;;;13.40
19666;BMP180;9980;51.020;7.772;2023-04-24T12:08:06;96599.00;;;13.40
19666;BMP180;9980;51.020;7.772;2023-04-24T12:10:34;96583.00;;;13.50
19666;BMP180;9980;51.020;7.772;2023-04-24T12:13:00;96603.00;;;13.50
19666;BMP180;9980;51.020;7.772;2023-04-24T12:15:28;96605.00;;;13.60
19666;BMP180;9980;51.020;7.772;2023-04-24T12:17:56;96621.00;;;13.70
19666;BMP180;9980;51.020;7.772;2023-04-24T12:20:31;96602.00;;;13.70
19666;BMP180;9980;51.020;7.772;2023-04-24T12:23:00;96598.00;;;13.80
19666;BMP180;9980;51.020;7.772;2023-04-24T12:25:32;96613.00;;;13.90
19666;BMP180;9980;51.020;7.772;2023-04-24T12:30:47;96626.00;;;14.10
19666;BMP180;9980;51.020;7.772;2023-04-24T12:33:19;96614.00;;;14.20
19666;BMP180;9980;51.020;7.772;2023-04-24T12:35:47;96610.00;;;14.30
19666;BMP180;9980;51.020;7.772;2023-04-24T12:38:15;96623.00;;;14.40
19666;BMP180;9980;51.020;7.772;2023-04-24T12:40:44;96626.00;;;14.50
19666;BMP180;9980;51.020;7.772;2023-04-24T12:43:18;96614.00;;;14.60
19666;BMP180;9980;51.020;7.772;2023-04-24T12:45:48;96612.00;;;14.70
19666;BMP180;9980;51.020;7.772;2023-04-24T12:48:14;96615.00;;;14.80
19666;BMP180;9980;51.020;7.772;2023-04-24T12:50:42;96625.00;;;14.80
19666;BMP180;9980;51.020;7.772;2023-04-24T12:53:12;96615.00;;;14.90
19666;BMP180;9980;51.020;7.772;2023-04-24T12:55:38;96622.00;;;15.00
19666;BMP180;9980;51.020;7.772;2023-04-24T12:58:05;96638.00;;;15.00
19666;BMP180;9980;51.020;7.772;2023-04-24T13:00:31;96639.00;;;15.00
19666;BMP180;9980;51.020;7.772;2023-04-24T13:02:58;96616.00;;;14.90
19666;BMP180;9980;51.020;7.772;2023-04-24T13:05:25;96629.00;;;14.90
19666;BMP180;9980;51.020;7.772;2023-04-24T13:07:51;96638.00;;;14.90
19666;BMP180;9980;51.020;7.772;2023-04-24T13:10:17;96648.00;;;14.90
19666;BMP180;9980;51.020;7.772;2023-04-24T13:12:45;96648.00;;;14.90
19666;BMP180;9980;51.020;7.772;2023-04-24T13:15:12;96655.00;;;14.90
19666;BMP180;9980;51.020;7.772;2023-04-24T13:17:39;96651.00;;;14.80
19666;BMP180;9980;51.020;7.772;2023-04-24T13:20:06;96646.00;;;14.80
19666;BMP180;9980;51.020;7.772;2023-04-24T13:22:32;96657.00;;;14.80
19666;BMP180;9980;51.020;7.772;2023-04-24T13:24:58;96656.00;;;14.80
19666;BMP180;9980;51.020;7.772;2023-04-24T13:27:25;96651.00;;;14.80
19666;BMP180;9980;51.020;7.772;2023-04-24T13:29:52;96660.00;;;14.70
19666;BMP180;9980;51.020;7.772;2023-04-24T13:32:18;96655.00;;;14.70
19666;BMP180;9980;51.020;7.772;2023-04-24T13:34:45;96647.00;;;14.70
19666;BMP180;9980;51.020;7.772;2023-04-24T13:37:11;96645.00;;;14.70
19666;BMP180;9980;51.020;7.772;2023-04-24T13:39:37;96641.00;;;14.80
19666;BMP180;9980;51.020;7.772;2023-04-24T13:42:04;96660.00;;;14.80
19666;BMP180;9980;51.020;7.772;2023-04-24T13:44:31;96652.00;;;14.90
19666;BMP180;9980;51.020;7.772;2023-04-24T13:46:57;96650.00;;;15.00
19666;BMP180;9980;51.020;7.772;2023-04-24T13:49:24;96666.00;;;15.10
19666;BMP180;9980;51.020;7.772;2023-04-24T13:51:53;96662.00;;;15.10
19666;BMP180;9980;51.020;7.772;2023-04-24T13:54:20;96655.00;;;15.20
19666;BMP180;9980;51.020;7.772;2023-04-24T13:56:46;96662.00;;;15.20
19666;BMP180;9980;51.020;7.772;2023-04-24T13:59:13;96667.00;;;15.20
19666;BMP180;9980;51.020;7.772;2023-04-24T14:01:39;96658.00;;;15.30
19666;BMP180;9980;51.020;7.772;2023-04-24T14:04:06;96656.00;;;15.40
19666;BMP180;9980;51.020;7.772;2023-04-24T14:06:32;96646.00;;;15.50
19666;BMP180;9980;51.020;7.772;2023-04-24T14:08:59;96658.00;;;15.50
19666;BMP180;9980;51.020;7.772;2023-04-24T14:11:26;96647.00;;;15.60
19666;BMP180;9980;51.020;7.772;2023-04-24T14:13:54;96645.00;;;15.70
19666;BMP180;9980;51.020;7.772;2023-04-24T14:16:22;96665.00;;;15.70
19666;BMP180;9980;51.020;7.772;2023-04-24T14:18:48;96637.00;;;15.70
19666;BMP180;9980;51.020;7.772;2023-04-24T14:21:14;96657.00;;;15.70
19666;BMP180;9980;51.020;7.772;2023-04-24T14:23:42;96666.00;;;15.70
19666;BMP180;9980;51.020;7.772;2023-04-24T14:26:09;96662.00;;;15.70
19666;BMP180;9980;51.020;7.772;2023-04-24T14:28:35;96662.00;;;15.70
19666;BMP180;9980;51.020;7.772;2023-04-24T14:31:01;96682.00;;;15.60
19666;BMP180;9980;51.020;7.772;2023-04-24T14:33:28;96652.00;;;15.60
19666;BMP180;9980;51.020;7.772;2023-04-24T14:35:54;96664.00;;;15.60
19666;BMP180;9980;51.020;7.772;2023-04-24T14:38:21;96668.00;;;15.60
19666;BMP180;9980;51.020;7.772;2023-04-24T14:40:48;96675.00;;;15.50